sensor_id;sensor_type;location;lat;lon;timestamp;pressure;altitude;pressure_sealevel;temperature;humidity
73105;BME280;61296;50.526;30.792;2023-05-01T00:02:18;99170.00;;;8.25;49.38
73105;BME280;61296;50.526;30.792;2023-05-01T00:17:38;99177.16;;;8.33;50.74
73105;BME280;61296;50.526;30.792;2023-05-01T00:32:57;99167.25;;;7.98;52.16
73105;BME280;61296;50.526;30.792;2023-05-01T00:48:17;99103.81;;;7.24;56.35
73105;BME280;61296;50.526;30.792;2023-05-01T01:03:39;99157.81;;;6.88;58.91
73105;BME280;61296;50.526;30.792;2023-05-01T01:34:35;99117.94;;;6.14;67.84
73105;BME280;61296;50.526;30.792;2023-05-01T01:50:03;99197.28;;;6.72;70.07
73105;BME280;61296;50.526;30.792;2023-05-01T02:05:25;99118.13;;;6.21;70.59
73105;BME280;61296;50.526;30.792;2023-05-01T02:20:46;99255.31;;;7.00;72.19
73105;BME280;61296;50.526;30.792;2023-05-01T02:36:06;99163.25;;;5.99;76.72
73105;BME280;61296;50.526;30.792;2023-05-01T02:51:27;99154.69;;;5.85;78.62
73105;BME280;61296;50.526;30.792;2023-05-01T03:06:47;99243.09;;;6.43;79.79
73105;BME280;61296;50.526;30.792;2023-05-01T03:22:06;99239.72;;;6.50;80.49
73105;BME280;61296;50.526;30.792;2023-05-01T03:37:27;99196.91;;;6.73;79.76
73105;BME280;61296;50.526;30.792;2023-05-01T03:52:46;99337.91;;;8.25;76.89
73105;BME280;61296;50.526;30.792;2023-05-01T04:08:06;99201.00;;;7.60;73.66
73105;BME280;61296;50.526;30.792;2023-05-01T04:23:25;99386.53;;;9.23;70.25
73105;BME280;61296;50.526;30.792;2023-05-01T04:38:48;99384.22;;;9.86;64.49
73105;BME280;61296;50.526;30.792;2023-05-01T04:54:09;99254.50;;;9.62;60.06
73105;BME280;61296;50.526;30.792;2023-05-01T05:09:31;99344.56;;;10.20;57.62
73105;BME280;61296;50.526;30.792;2023-05-01T05:24:54;99330.84;;;10.20;54.58
73105;BME280;61296;50.526;30.792;2023-05-01T05:40:14;99422.28;;;10.91;51.46
73105;BME280;61296;50.526;30.792;2023-05-01T05:55:46;99447.72;;;11.84;47.75
73105;BME280;61296;50.526;30.792;2023-05-01T06:11:07;99430.06;;;11.89;45.36
73105;BME280;61296;50.526;30.792;2023-05-01T06:26:28;99447.97;;;11.10;45.32
73105;BME280;61296;50.526;30.792;2023-05-01T06:41:48;99545.31;;;11.79;42.74
73105;BME280;61296;50.526;30.792;2023-05-01T06:57:08;99432.47;;;10.87;39.56
73105;BME280;61296;50.526;30.792;2023-05-01T07:12:28;99575.06;;;12.14;36.55
73105;BME280;61296;50.526;30.792;2023-05-01T07:27:49;99422.56;;;11.31;35.73
73105;BME280;61296;50.526;30.792;2023-05-01T07:43:08;99460.97;;;11.13;37.39
73105;BME280;61296;50.526;30.792;2023-05-01T07:58:31;99560.78;;;11.98;35.08
73105;BME280;61296;50.526;30.792;2023-05-01T08:13:51;99516.25;;;11.89;34.08
73105;BME280;61296;50.526;30.792;2023-05-01T08:29:10;99576.91;;;12.69;32.52
73105;BME280;61296;50.526;30.792;2023-05-01T08:44:30;99646.81;;;12.25;32.90
73105;BME280;61296;50.526;30.792;2023-05-01T08:59:50;99617.44;;;11.89;32.86
73105;BME280;61296;50.526;30.792;2023-05-01T09:15:11;99537.75;;;11.73;32.29
73105;BME280;61296;50.526;30.792;2023-05-01T09:30:35;99562.00;;;12.01;31.88
73105;BME280;61296;50.526;30.792;2023-05-01T09:46:01;99608.69;;;12.34;33.03
73105;BME280;61296;50.526;30.792;2023-05-01T10:01:39;99607.09;;;12.33;31.98
73105;BME280;61296;50.526;30.792;2023-05-01T10:17:16;99700.78;;;12.85;30.55
73105;BME280;61296;50.526;30.792;2023-05-01T10:32:36;99643.09;;;12.58;30.42
73105;BME280;61296;50.526;30.792;2023-05-01T10:47:57;99662.16;;;12.92;30.61
73105;BME280;61296;50.526;30.792;2023-05-01T11:18:45;99678.72;;;12.92;29.03
73105;BME280;61296;50.526;30.792;2023-05-01T11:34:07;99628.16;;;12.63;29.45
73105;BME280;61296;50.526;30.792;2023-05-01T11:49:26;99606.16;;;12.91;30.17
73105;BME280;61296;50.526;30.792;2023-05-01T12:04:48;99748.91;;;13.81;27.54
73105;BME280;61296;50.526;30.792;2023-05-01T12:20:14;99687.25;;;13.45;29.33
73105;BME280;61296;50.526;30.792;2023-05-01T12:35:35;99613.00;;;13.22;28.54
73105;BME280;61296;50.526;30.792;2023-05-01T12:50:54;99678.94;;;13.35;28.36
73105;BME280;61296;50.526;30.792;2023-05-01T13:06:15;99761.59;;;14.07;27.95
73105;BME280;61296;50.526;30.792;2023-05-01T13:21:35;99613.44;;;13.46;28.47
73105;BME280;61296;50.526;30.792;2023-05-01T13:36:55;99658.06;;;13.48;28.75
73105;BME280;61296;50.526;30.792;2023-05-01T13:52:15;99724.81;;;13.85;29.06
73105;BME280;61296;50.526;30.792;2023-05-01T14:07:55;99673.78;;;13.33;29.47
73105;BME280;61296;50.526;30.792;2023-05-01T14:23:15;99716.88;;;13.63;29.49
73105;BME280;61296;50.526;30.792;2023-05-01T14:38:36;99707.78;;;13.51;28.24
73105;BME280;61296;50.526;30.792;2023-05-01T14:53:59;99712.44;;;13.29;28.87
73105;BME280;61296;50.526;30.792;2023-05-01T15:09:19;99833.47;;;14.00;28.90
73105;BME280;61296;50.526;30.792;2023-05-01T15:24:38;99780.88;;;13.68;29.18
73105;BME280;61296;50.526;30.792;2023-05-01T15:39:58;99709.97;;;13.03;28.88
73105;BME280;61296;50.526;30.792;2023-05-01T15:55:18;99806.91;;;13.64;29.01
73105;BME280;61296;50.526;30.792;2023-05-01T16:10:37;99805.94;;;13.24;30.00
73105;BME280;61296;50.526;30.792;2023-05-01T16:25:59;99829.09;;;13.12;30.21
73105;BME280;61296;50.526;30.792;2023-05-01T16:41:18;99833.31;;;12.92;31.13
73105;BME280;61296;50.526;30.792;2023-05-01T16:56:38;99835.78;;;12.56;31.70
73105;BME280;61296;50.526;30.792;2023-05-01T17:11:58;99852.97;;;12.39;32.43
73105;BME280;61296;50.526;30.792;2023-05-01T17:27:18;99934.72;;;12.58;33.13
73105;BME280;61296;50.526;30.792;2023-05-01T17:42:37;99961.81;;;12.45;34.41
73105;BME280;61296;50.526;30.792;2023-05-01T17:58:05;99917.22;;;11.76;34.91
73105;BME280;61296;50.526;30.792;2023-05-01T18:13:25;100022.47;;;11.85;35.11
73105;BME280;61296;50.526;30.792;2023-05-01T18:28:54;100028.41;;;11.38;35.21
73105;BME280;61296;50.526;30.792;2023-05-01T18:44:15;99954.56;;;10.52;35.66
73105;BME280;61296;50.526;30.792;2023-05-01T18:59:38;100062.00;;;10.82;36.53
73105;BME280;61296;50.526;30.792;2023-05-01T19:15:08;100062.75;;;10.59;36.45
73105;BME280;61296;50.526;30.792;2023-05-01T19:30:27;100011.59;;;10.00;35.61
73105;BME280;61296;50.526;30.792;2023-05-01T19:45:47;100082.19;;;10.31;35.26
73105;BME280;61296;50.526;30.792;2023-05-01T20:01:21;100136.13;;;10.36;35.60
73105;BME280;61296;50.526;30.792;2023-05-01T20:16:52;100059.75;;;9.59;35.98
73105;BME280;61296;50.526;30.792;2023-05-01T20:32:12;100113.03;;;9.90;34.39
73105;BME280;61296;50.526;30.792;2023-05-01T20:47:31;100079.41;;;9.45;34.59
73105;BME280;61296;50.526;30.792;2023-05-01T21:02:51;100107.41;;;9.51;34.47
73105;BME280;61296;50.526;30.792;2023-05-01T21:18:13;100156.56;;;9.72;34.68
73105;BME280;61296;50.526;30.792;2023-05-01T21:33:35;100107.09;;;9.09;35.62
73105;BME280;61296;50.526;30.792;2023-05-01T21:48:59;100093.97;;;8.74;35.39
73105;BME280;61296;50.526;30.792;2023-05-01T22:04:18;100096.97;;;8.69;35.15
73105;BME280;61296;50.526;30.792;2023-05-01T22:19:40;100246.72;;;9.54;35.97
73105;BME280;61296;50.526;30.792;2023-05-01T22:35:01;100236.94;;;9.41;35.54
73105;BME280;61296;50.526;30.792;2023-05-01T22:50:21;100235.28;;;9.24;35.52
73105;BME280;61296;50.526;30.792;2023-05-01T23:05:40;100196.22;;;8.87;35.61
73105;BME280;61296;50.526;30.792;2023-05-01T23:21:00;100192.56;;;8.83;35.00
73105;BME280;61296;50.526;30.792;2023-05-01T23:36:19;100159.16;;;8.53;34.29
73105;BME280;61296;50.526;30.792;2023-05-01T23:51:40;100234.84;;;8.82;34.88
